Time;durP1;ratioP1;P1;durP2;ratioP2;P2;SDS_P1;SDS_P2;PMS_P1;PMS_P2;Temp;Humidity;BMP_temperature;BMP_pressure;BME280_temperature;BME280_humidity;BME280_pressure;Samples;Min_cycle;Max_cycle;Signal;HPM_P1;HPM_P2
2022/02/17 00:00:33;;;;;;;85.55;44.10;;;;;;;3.18;75.69;98487.77;1779632;80;21950;-38
2022/02/17 00:03:00;;;;;;;72.92;42.95;;;;;;;3.12;75.78;98483.73;1779878;80;21130;-38
2022/02/17 00:05:26;;;;;;;73.37;41.75;;;;;;;3.10;75.89;98478.70;1778975;80;20957;-38
2022/02/17 00:07:54;;;;;;;72.62;42.43;;;;;;;3.17;75.81;98483.53;1779794;80;20969;-38
2022/02/17 00:10:23;;;;;;;76.92;44.65;;;;;;;3.18;75.82;98479.19;1780021;80;21492;-38
2022/02/17 00:12:51;;;;;;;78.17;44.48;;;;;;;3.13;75.93;98471.37;1779778;80;21499;-38
2022/02/17 00:15:18;;;;;;;101.22;48.25;;;;;;;3.12;76.16;98473.03;1779960;80;21240;-38
2022/02/17 00:17:44;;;;;;;76.35;43.70;;;;;;;3.11;76.32;98464.76;1779651;80;20965;-38
2022/02/17 00:20:11;;;;;;;74.72;43.58;;;;;;;3.11;76.26;98456.73;1772615;80;21472;-37
2022/02/17 00:22:39;;;;;;;74.67;45.28;;;;;;;3.17;76.20;98448.71;1779699;80;21004;-37
2022/02/17 00:25:07;;;;;;;75.95;46.35;;;;;;;3.19;76.10;98448.63;1780054;80;21037;-37
2022/02/17 00:27:35;;;;;;;86.15;47.33;;;;;;;3.15;76.13;98439.66;1779920;80;21057;-37
2022/02/17 00:30:03;;;;;;;82.45;46.15;;;;;;;3.14;76.28;98438.67;1779793;80;20989;-37
2022/02/17 00:32:30;;;;;;;74.03;45.45;;;;;;;3.12;76.34;98430.18;1779744;80;21542;-38
2022/02/17 00:34:56;;;;;;;68.40;44.08;;;;;;;3.14;76.43;98419.38;1779623;80;21100;-37
2022/02/17 00:37:23;;;;;;;85.03;44.55;;;;;;;3.24;76.22;98417.61;1779685;80;21088;-37
2022/02/17 00:39:51;;;;;;;77.15;46.63;;;;;;;3.30;76.07;98424.28;1779720;80;21136;-37
2022/02/17 00:42:18;;;;;;;81.12;46.75;;;;;;;3.28;76.01;98420.39;1771655;80;20949;-38
2022/02/17 00:44:47;;;;;;;80.95;46.92;;;;;;;3.26;76.09;98411.89;1768703;81;21677;-37
2022/02/17 00:47:14;;;;;;;76.45;45.33;;;;;;;3.23;76.10;98403.98;1769624;81;21005;-37
2022/02/17 00:49:40;;;;;;;67.95;43.65;;;;;;;3.23;76.09;98393.27;1768728;81;21021;-37
2022/02/17 00:52:09;;;;;;;70.12;43.38;;;;;;;3.28;75.97;98388.25;1769026;81;21043;-37
2022/02/17 00:54:36;;;;;;;70.40;43.90;;;;;;;3.33;75.88;98371.95;1768555;81;21016;-37
2022/02/17 00:57:04;;;;;;;76.33;45.60;;;;;;;3.39;75.94;98366.57;1768974;81;21081;-37
2022/02/17 00:59:30;;;;;;;77.22;46.37;;;;;;;3.43;75.89;98351.41;1768607;81;20933;-37
2022/02/17 01:01:57;;;;;;;77.40;46.42;;;;;;;3.44;75.65;98352.39;1768847;81;21041;-37
2022/02/17 01:04:24;;;;;;;72.82;44.13;;;;;;;3.41;75.45;98354.97;1768617;81;21171;-37
2022/02/17 01:06:50;;;;;;;66.62;42.67;;;;;;;3.35;75.36;98346.93;1768871;81;21023;-38
2022/02/17 01:09:17;;;;;;;69.37;42.93;;;;;;;3.38;75.14;98347.62;1768668;81;20948;-38
2022/02/17 01:11:44;;;;;;;69.05;44.27;;;;;;;3.36;75.13;98341.25;1768757;81;21507;-38
2022/02/17 01:14:11;;;;;;;70.15;44.40;;;;;;;3.31;75.27;98332.09;1768646;81;21041;-38
2022/02/17 01:16:38;;;;;;;64.90;41.83;;;;;;;3.28;75.36;98323.96;1768760;81;21955;-38
2022/02/17 01:19:13;;;;;;;62.70;40.78;;;;;;;3.22;75.41;98317.27;1768834;81;21519;-38
2022/02/17 01:21:42;;;;;;;63.52;40.58;;;;;;;3.20;75.45;98308.77;1734274;82;21492;-38
2022/02/17 01:24:09;;;;;;;64.30;41.42;;;;;;;3.24;75.36;98300.31;1768760;81;21007;-38
2022/02/17 01:26:36;;;;;;;64.65;40.00;;;;;;;3.28;75.34;98298.52;1768881;81;21065;-38
2022/02/17 01:29:03;;;;;;;68.33;41.92;;;;;;;3.29;75.33;98290.70;1769182;81;21101;-38
2022/02/17 01:31:32;;;;;;;66.53;44.27;;;;;;;3.29;75.20;98288.78;1734590;82;21024;-38
2022/02/17 01:34:03;;;;;;;72.97;44.23;;;;;;;3.25;75.11;98289.23;1766984;81;20997;-38
2022/02/17 01:36:31;;;;;;;67.22;42.98;;;;;;;3.22;75.17;98285.13;1768760;81;21033;-38
2022/02/17 01:38:57;;;;;;;64.55;42.62;;;;;;;3.19;75.02;98279.11;1768728;81;21033;-38
2022/02/17 01:41:25;;;;;;;61.68;41.40;;;;;;;3.20;74.82;98268.59;1734394;82;21926;-38
2022/02/17 01:43:54;;;;;;;62.80;41.40;;;;;;;3.20;74.84;98261.34;1776390;80;20996;-38
2022/02/17 01:46:39;;;;;;;65.95;44.58;;;;;;;3.16;74.98;98246.30;1745213;82;21006;-38
2022/02/17 01:49:08;;;;;;;67.62;45.12;;;;;;;3.14;75.06;98243.19;1779659;80;21084;-38
2022/02/17 01:51:35;;;;;;;64.53;43.45;;;;;;;3.09;75.16;98233.48;1783810;80;21103;-38
2022/02/17 01:54:04;;;;;;;64.90;41.20;;;;;;;3.08;75.09;98238.62;1783374;80;21965;-37
2022/02/17 01:57:58;;;;;;;62.10;41.92;;;;;;;3.19;75.00;98229.56;1844085;76;23440;-38
2022/02/17 02:00:27;;;;;;;65.28;43.02;;;;;;;3.06;75.22;98235.48;1809714;79;20935;-38
2022/02/17 02:02:53;;;;;;;67.25;44.27;;;;;;;3.01;75.44;98225.79;1814667;79;21806;-38
2022/02/17 02:05:22;;;;;;;63.63;41.23;;;;;;;2.97;75.66;98219.55;1810601;79;20943;-37
2022/02/17 02:07:50;;;;;;;64.50;41.85;;;;;;;2.98;75.78;98225.13;1814789;79;20923;-37
2022/02/17 02:10:22;;;;;;;62.95;42.00;;;;;;;3.00;75.76;98210.84;1813865;79;20970;-37
2022/02/17 02:12:48;;;;;;;66.15;43.05;;;;;;;3.00;75.89;98210.84;1814503;79;21504;-37
2022/02/17 02:15:17;;;;;;;65.85;42.90;;;;;;;2.97;76.06;98204.83;1812305;79;21552;-37
2022/02/17 02:17:44;;;;;;;66.17;41.83;;;;;;;2.95;76.19;98200.94;1814377;79;20919;-37
2022/02/17 02:20:17;;;;;;;64.40;39.38;;;;;;;2.91;76.35;98192.00;1814573;79;21630;-37
2022/02/17 02:22:46;;;;;;;60.23;39.75;;;;;;;2.87;76.46;98181.75;1814396;79;20997;-37
2022/02/17 02:25:13;;;;;;;63.20;41.45;;;;;;;2.91;76.51;98183.41;1814359;79;21070;-37
2022/02/17 02:27:40;;;;;;;62.88;41.30;;;;;;;2.91;76.54;98172.70;1814758;79;21098;-38
2022/02/17 02:30:08;;;;;;;66.33;43.95;;;;;;;2.88;76.67;98165.36;1814300;79;20915;-37
2022/02/17 02:32:36;;;;;;;63.87;41.00;;;;;;;2.88;76.90;98165.36;1815122;79;20935;-37
2022/02/17 02:35:03;;;;;;;60.35;40.50;;;;;;;2.91;76.74;98162.00;1814522;79;21493;-38
2022/02/17 02:37:31;;;;;;;63.70;42.58;;;;;;;2.95;76.71;98156.77;1814813;79;21010;-37
2022/02/17 02:39:57;;;;;;;63.92;42.05;;;;;;;2.96;76.76;98156.97;1814631;79;21782;-37
2022/02/17 02:42:24;;;;;;;65.05;43.48;;;;;;;2.92;76.82;98146.16;1814658;79;21563;-38
2022/02/17 02:44:51;;;;;;;65.78;42.05;;;;;;;2.89;76.99;98143.39;1814746;79;20966;-38
2022/02/17 02:47:18;;;;;;;62.35;41.05;;;;;;;2.90;76.91;98138.27;1814802;79;21029;-38
2022/02/17 02:49:45;;;;;;;61.02;40.85;;;;;;;2.93;76.91;98133.01;1806305;79;21695;-38
2022/02/17 02:52:11;;;;;;;64.00;42.40;;;;;;;2.99;76.84;98118.27;1782383;80;21120;-38
2022/02/17 02:54:40;;;;;;;65.92;42.85;;;;;;;3.01;76.87;98119.25;1781378;79;20996;-38
2022/02/17 02:57:07;;;;;;;62.83;43.92;;;;;;;3.01;76.83;98112.00;1782309;79;20973;-38
2022/02/17 02:59:36;;;;;;;69.42;43.45;;;;;;;2.97;76.83;98105.78;1782272;79;21019;-38
2022/02/17 03:02:05;;;;;;;58.48;40.70;;;;;;;3.00;76.75;98107.77;1782769;79;21077;-37
2022/02/17 03:04:32;;;;;;;62.40;41.48;;;;;;;3.05;76.55;98116.89;1782228;80;21109;-37
2022/02/17 03:07:00;;;;;;;66.00;43.70;;;;;;;3.11;76.47;98116.66;1783483;78;21604;-37
2022/02/17 03:09:27;;;;;;;64.45;44.03;;;;;;;3.08;76.56;98102.62;1781682;80;21032;-37
2022/02/17 03:11:54;;;;;;;66.28;45.15;;;;;;;3.04;76.68;98096.62;1781655;79;20953;-38
2022/02/17 03:14:22;;;;;;;62.58;44.10;;;;;;;3.00;76.73;98090.36;1781994;80;21447;-37
2022/02/17 03:16:49;;;;;;;59.90;41.80;;;;;;;2.98;76.82;98091.28;1781664;80;21131;-37
2022/02/17 03:19:15;;;;;;;63.63;42.85;;;;;;;3.00;76.95;98089.61;1781661;80;20929;-38
2022/02/17 03:21:42;;;;;;;64.40;43.78;;;;;;;3.01;76.97;98090.59;1781953;80;20968;-37
2022/02/17 03:24:09;;;;;;;67.10;45.00;;;;;;;3.01;77.08;98087.13;1781827;80;21017;-37
2022/02/17 03:26:40;;;;;;;68.15;44.75;;;;;;;2.99;77.21;98076.00;1781869;78;21009;-38
2022/02/17 03:29:07;;;;;;;63.33;42.40;;;;;;;2.97;77.35;98070.97;1782213;80;21753;-38
2022/02/17 03:31:34;;;;;;;65.08;43.23;;;;;;;3.00;77.29;98072.95;1781533;79;20909;-38
2022/02/17 03:34:03;;;;;;;66.20;43.13;;;;;;;3.05;77.14;98076.73;1782100;78;21030;-38
2022/02/17 03:36:31;;;;;;;65.87;43.30;;;;;;;3.08;77.21;98075.84;1781899;80;20945;-38
2022/02/17 03:38:59;;;;;;;73.57;46.05;;;;;;;3.03;77.31;98057.57;1781763;80;21494;-38
2022/02/17 03:41:28;;;;;;;68.22;44.00;;;;;;;3.00;77.41;98060.91;1784578;78;21094;-38
2022/02/17 03:43:57;;;;;;;65.50;43.15;;;;;;;3.02;77.37;98065.94;1783024;78;20957;-38
2022/02/17 03:46:27;;;;;;;63.55;43.58;;;;;;;3.05;77.31;98058.55;1781732;79;21542;-38
2022/02/17 03:48:54;;;;;;;69.67;46.70;;;;;;;3.09;77.35;98055.44;1781716;80;20973;-38
2022/02/17 03:51:21;;;;;;;72.97;44.98;;;;;;;3.08;77.42;98052.53;1781758;79;20985;-38
2022/02/17 03:53:48;;;;;;;65.83;43.40;;;;;;;3.03;77.45;98052.22;1781702;80;21125;-38
2022/02/17 03:56:16;;;;;;;67.70;43.95;;;;;;;3.03;77.44;98046.86;1782429;78;20961;-38
2022/02/17 03:59:04;;;;;;;65.80;44.20;;;;;;;3.08;77.46;98041.82;1799641;78;21330;-38
2022/02/17 04:01:37;;;;;;;68.85;44.00;;;;;;;3.11;77.33;98041.68;1798680;78;21053;-38
2022/02/17 04:04:08;;;;;;;73.97;46.48;;;;;;;3.08;77.44;98045.05;1798995;79;21214;-39
2022/02/17 04:06:36;;;;;;;72.87;44.90;;;;;;;3.01;77.53;98045.08;1799036;79;21588;-38
2022/02/17 04:09:05;;;;;;;72.40;44.50;;;;;;;3.01;77.50;98032.24;1798822;79;20967;-39
2022/02/17 04:11:32;;;;;;;77.20;46.37;;;;;;;3.03;77.40;98028.13;1798959;79;20988;-39
2022/02/17 04:13:59;;;;;;;73.45;46.10;;;;;;;3.05;77.35;98021.06;1798923;79;21023;-38
2022/02/17 04:16:29;;;;;;;77.60;48.63;;;;;;;3.03;77.43;98013.95;1800005;78;21593;-38
2022/02/17 04:19:04;;;;;;;71.65;44.58;;;;;;;3.01;77.49;98003.58;1765888;79;21864;-38
2022/02/17 04:21:32;;;;;;;71.20;45.15;;;;;;;3.01;77.41;98002.80;1801647;78;21011;-39
2022/02/17 04:24:10;;;;;;;71.10;45.92;;;;;;;3.04;77.29;97995.44;1801818;78;20944;-38
2022/02/17 04:26:38;;;;;;;71.62;45.58;;;;;;;3.06;77.25;97989.95;1800465;78;21032;-39
2022/02/17 04:29:13;;;;;;;74.97;47.80;;;;;;;3.02;77.37;97985.06;1787708;78;21114;-39
2022/02/17 04:31:41;;;;;;;77.10;47.30;;;;;;;2.96;77.50;97979.73;1800377;78;21850;-39
2022/02/17 04:34:08;;;;;;;67.55;43.60;;;;;;;2.94;77.60;97979.31;1798591;79;20983;-39
2022/02/17 04:36:35;;;;;;;68.20;44.10;;;;;;;2.98;77.45;97970.81;1798655;79;21006;-39
2022/02/17 04:39:01;;;;;;;73.02;44.70;;;;;;;3.00;77.31;97959.19;1798564;79;21015;-39
2022/02/17 04:44:17;;;;;;;68.92;45.35;;;;;;;2.92;77.70;97957.45;1792719;78;21138;-39
2022/02/17 04:46:44;;;;;;;73.57;45.88;;;;;;;2.90;77.85;97950.34;1798876;79;20983;-39
2022/02/17 04:49:11;;;;;;;68.55;44.60;;;;;;;2.90;77.87;97936.96;1798803;78;21516;-39
2022/02/17 04:51:38;;;;;;;71.35;44.58;;;;;;;2.95;77.68;97939.36;1798681;79;21008;-39
2022/02/17 04:54:05;;;;;;;68.57;44.77;;;;;;;2.99;77.56;97941.59;1798954;79;20995;-39
2022/02/17 04:56:34;;;;;;;70.35;45.90;;;;;;;3.01;77.61;97935.31;1798898;78;20973;-39
2022/02/17 04:59:01;;;;;;;74.00;46.18;;;;;;;3.00;77.52;97937.77;1801409;79;20975;-38
2022/02/17 05:01:30;;;;;;;65.22;41.65;;;;;;;2.98;77.55;97935.23;1802404;78;21597;-38
2022/02/17 05:04:04;;;;;;;68.22;42.62;;;;;;;2.99;77.55;97931.44;1803418;78;21079;-38
2022/02/17 05:06:33;;;;;;;65.70;42.23;;;;;;;3.03;77.38;97919.69;1801666;79;20992;-39
2022/02/17 05:09:00;;;;;;;68.20;44.85;;;;;;;3.05;77.37;97906.72;1801440;79;21142;-38
2022/02/17 05:11:28;;;;;;;67.32;43.40;;;;;;;3.02;77.38;97903.41;1801317;79;21522;-39
2022/02/17 05:13:56;;;;;;;70.78;44.50;;;;;;;2.99;77.53;97896.08;1801423;79;20972;-38
2022/02/17 05:16:22;;;;;;;68.67;43.52;;;;;;;2.97;77.69;97903.66;1801264;79;20960;-38
2022/02/17 05:18:50;;;;;;;66.50;43.20;;;;;;;3.00;77.57;97893.59;1801419;79;21007;-39
2022/02/17 05:21:18;;;;;;;67.65;44.08;;;;;;;3.03;77.45;97891.59;1801775;79;21860;-38
2022/02/17 05:23:53;;;;;;;70.32;45.98;;;;;;;3.03;77.54;97892.92;1790329;78;21525;-38
2022/02/17 05:26:38;;;;;;;76.53;45.08;;;;;;;3.02;77.57;97883.33;1801573;79;20940;-38
2022/02/17 05:29:09;;;;;;;62.43;41.63;;;;;;;2.98;77.64;97879.80;1785133;79;21028;-38
2022/02/17 05:31:40;;;;;;;67.03;41.58;;;;;;;2.96;77.73;97877.23;1801796;78;21498;-38
2022/02/17 05:34:25;;;;;;;62.33;42.55;;;;;;;3.03;77.53;97869.39;1801679;79;21115;-38
2022/02/17 05:36:56;;;;;;;72.03;43.85;;;;;;;3.03;77.49;97866.15;1802018;78;20964;-38
2022/02/17 05:39:25;;;;;;;66.50;42.95;;;;;;;3.01;77.58;97868.38;1800835;78;21529;-38
2022/02/17 05:41:54;;;;;;;64.47;42.38;;;;;;;2.98;77.58;97863.73;1800442;78;20944;-38
2022/02/17 05:44:20;;;;;;;66.10;43.23;;;;;;;2.98;77.60;97858.94;1801562;79;21584;-38
2022/02/17 05:46:47;;;;;;;71.15;42.95;;;;;;;3.00;77.46;97859.37;1801399;79;21120;-39
2022/02/17 05:49:13;;;;;;;71.97;44.03;;;;;;;2.95;77.60;97852.95;1802940;78;20943;-39
2022/02/17 05:51:40;;;;;;;74.22;44.23;;;;;;;2.89;77.79;97859.11;1834138;78;21592;-39
2022/02/17 05:54:06;;;;;;;65.83;42.40;;;;;;;2.84;77.95;97854.58;1834249;78;21049;-38
2022/02/17 05:56:35;;;;;;;64.20;40.48;;;;;;;2.82;78.01;97851.45;1834127;78;20995;-39
2022/02/17 05:59:03;;;;;;;64.53;41.73;;;;;;;2.88;77.91;97846.84;1815172;78;21216;-39
2022/02/17 06:01:29;;;;;;;74.60;44.88;;;;;;;2.93;77.80;97849.27;1813493;79;20921;-39
2022/02/17 06:03:58;;;;;;;71.72;44.60;;;;;;;2.93;77.87;97834.55;1812089;78;21056;-39
2022/02/17 06:06:24;;;;;;;66.75;42.08;;;;;;;2.90;77.96;97832.57;1799956;79;20967;-39
2022/02/17 06:08:51;;;;;;;60.73;41.25;;;;;;;2.92;77.94;97824.17;1800018;79;21055;-40
2022/02/17 06:11:19;;;;;;;64.55;42.03;;;;;;;2.99;77.84;97814.43;1799948;79;21128;-39
2022/02/17 06:13:46;;;;;;;70.75;44.75;;;;;;;3.04;77.77;97808.81;1800027;79;20948;-39
2022/02/17 06:16:13;;;;;;;72.80;45.63;;;;;;;3.03;77.90;97823.88;1800504;78;21454;-39
2022/02/17 06:18:40;;;;;;;70.70;43.08;;;;;;;3.00;78.00;97805.25;1800078;79;21589;-39
2022/02/17 06:21:06;;;;;;;69.15;41.90;;;;;;;3.02;78.01;97815.06;1800166;79;21117;-39
2022/02/17 06:23:33;;;;;;;66.57;43.68;;;;;;;3.08;77.93;97802.20;1800208;79;21533;-39
2022/02/17 06:25:59;;;;;;;64.05;41.00;;;;;;;3.13;77.91;97796.58;1800147;79;20983;-39
2022/02/17 06:28:27;;;;;;;72.32;44.42;;;;;;;3.13;78.05;97792.56;1800030;79;21027;-39
2022/02/17 06:30:53;;;;;;;66.25;43.15;;;;;;;3.13;78.06;97789.10;1799873;79;21513;-39
2022/02/17 06:33:20;;;;;;;63.52;39.38;;;;;;;3.14;78.07;97790.66;1800116;79;21318;-39
2022/02/17 06:35:47;;;;;;;62.65;41.28;;;;;;;3.21;77.95;97794.27;1799760;79;21584;-39
2022/02/17 06:38:13;;;;;;;63.50;41.30;;;;;;;3.27;77.73;97790.19;1799837;79;21006;-39
2022/02/17 06:40:40;;;;;;;70.22;43.65;;;;;;;3.28;77.74;97788.30;1799991;79;21558;-39
2022/02/17 06:43:10;;;;;;;69.03;41.80;;;;;;;3.27;77.77;97784.84;1799835;79;21051;-39
2022/02/17 06:45:40;;;;;;;64.58;40.60;;;;;;;3.27;77.73;97788.86;1764982;80;20992;-39
2022/02/17 06:48:07;;;;;;;66.53;41.98;;;;;;;3.32;77.57;97775.20;1792389;80;21177;-38
2022/02/17 06:50:36;;;;;;;66.67;42.83;;;;;;;3.33;77.65;97765.27;1787503;79;20980;-39
2022/02/17 06:53:06;;;;;;;71.37;42.05;;;;;;;3.28;77.67;97755.59;1784974;80;20953;-39
2022/02/17 06:55:34;;;;;;;64.20;39.63;;;;;;;3.25;77.90;97751.48;1784620;80;21031;-39
2022/02/17 06:58:01;;;;;;;62.03;39.73;;;;;;;3.25;77.94;97751.48;1784764;80;22241;-39
2022/02/17 07:00:28;;;;;;;62.08;39.10;;;;;;;3.29;77.76;97744.33;1784927;80;21093;-39
2022/02/17 07:02:56;;;;;;;69.12;42.38;;;;;;;3.34;77.75;97732.75;1785002;80;20980;-39
2022/02/17 07:05:24;;;;;;;61.85;38.83;;;;;;;3.35;77.77;97725.49;1785241;80;20909;-38
2022/02/17 07:07:50;;;;;;;59.63;37.60;;;;;;;3.36;77.73;97718.45;1785406;80;20996;-39
2022/02/17 07:10:54;;;;;;;61.42;39.48;;;;;;;3.44;77.55;97711.33;1785199;80;21091;-39
2022/02/17 07:12:48;;;;;;;62.05;39.67;;;;;;;3.53;77.36;97699.86;1785475;79;20968;-39
2022/02/17 07:15:16;;;;;;;58.42;38.17;;;;;;;3.55;77.38;97694.91;1785049;80;20999;-38
2022/02/17 07:17:42;;;;;;;66.02;39.78;;;;;;;3.57;77.34;97699.36;1785399;80;21016;-38
2022/02/17 07:20:10;;;;;;;58.85;38.17;;;;;;;3.67;77.27;97700.69;1784862;80;20937;-39
2022/02/17 07:22:37;;;;;;;62.33;39.20;;;;;;;3.76;76.88;97693.20;1784934;80;21080;-39
2022/02/17 07:25:06;;;;;;;65.32;39.42;;;;;;;3.81;76.69;97676.27;1784942;80;21323;-39
2022/02/17 07:27:33;;;;;;;54.67;32.78;;;;;;;3.86;76.57;97681.34;1785322;80;20984;-39
2022/02/17 07:30:00;;;;;;;62.88;39.35;;;;;;;3.84;76.37;97667.51;1784823;80;20972;-38
2022/02/17 07:32:29;;;;;;;64.45;40.70;;;;;;;3.87;76.41;97673.48;1784875;80;21829;-39
2022/02/17 07:34:55;;;;;;;61.65;40.78;;;;;;;3.97;76.33;97662.74;1785083;80;21040;-39
2022/02/17 07:37:22;;;;;;;64.42;39.85;;;;;;;4.05;76.21;97665.00;1785083;80;22012;-39
2022/02/17 07:39:50;;;;;;;63.17;40.88;;;;;;;4.12;76.03;97669.13;1784838;80;21015;-39
2022/02/17 07:42:18;;;;;;;62.45;39.42;;;;;;;4.23;75.83;97666.84;1784953;80;20937;-39
2022/02/17 07:44:45;;;;;;;65.00;39.63;;;;;;;4.38;75.39;97679.34;1784926;80;21044;-39
2022/02/17 07:47:13;;;;;;;64.75;42.10;;;;;;;4.53;74.83;97668.27;1784867;80;21087;-39
2022/02/17 07:49:40;;;;;;;67.82;42.15;;;;;;;4.58;74.58;97660.48;1791886;79;21053;-39
2022/02/17 07:52:08;;;;;;;63.23;39.50;;;;;;;4.59;74.30;97658.78;1817339;79;20949;-39
2022/02/17 07:54:34;;;;;;;61.98;38.95;;;;;;;4.66;74.22;97656.75;1817158;79;21066;-39
2022/02/17 07:57:03;;;;;;;63.52;39.42;;;;;;;4.72;73.88;97648.04;1817155;79;21032;-39
2022/02/17 07:59:30;;;;;;;59.85;39.05;;;;;;;4.77;73.61;97636.99;1816630;79;20949;-39
2022/02/17 08:01:58;;;;;;;63.15;40.58;;;;;;;4.80;73.51;97634.14;1816918;79;21158;-39
2022/02/17 08:04:25;;;;;;;63.65;39.18;;;;;;;4.83;73.36;97632.65;1816984;79;20905;-39
2022/02/17 08:06:52;;;;;;;58.38;37.58;;;;;;;4.90;73.22;97627.36;1817132;79;21000;-39
2022/02/17 08:09:19;;;;;;;58.90;38.15;;;;;;;4.98;72.80;97622.30;1817061;79;21502;-39
2022/02/17 08:11:47;;;;;;;61.63;39.65;;;;;;;5.02;72.34;97616.41;1817043;79;21010;-39
2022/02/17 08:14:14;;;;;;;62.80;40.78;;;;;;;5.04;72.52;97608.74;1817127;79;21133;-40
2022/02/17 08:16:43;;;;;;;58.90;37.13;;;;;;;5.13;72.34;97603.89;1816732;79;20936;-39
2022/02/17 08:19:11;;;;;;;58.50;37.33;;;;;;;5.20;71.88;97602.61;1817010;79;20937;-39
2022/02/17 08:21:38;;;;;;;54.53;36.75;;;;;;;5.31;71.68;97588.73;1816844;79;21273;-39
2022/02/17 08:24:06;;;;;;;56.85;36.75;;;;;;;5.42;71.57;97591.55;1816637;79;21040;-39
2022/02/17 08:26:34;;;;;;;60.63;37.73;;;;;;;5.50;71.10;97581.84;1816748;79;21574;-39
2022/02/17 08:29:01;;;;;;;56.02;37.13;;;;;;;5.58;70.77;97574.04;1816685;79;21019;-39
2022/02/17 08:31:28;;;;;;;54.35;35.03;;;;;;;5.69;70.60;97574.92;1816755;79;21475;-39
2022/02/17 08:33:55;;;;;;;52.15;34.55;;;;;;;5.87;70.17;97578.36;1816772;79;21025;-39
2022/02/17 08:36:24;;;;;;;56.25;36.58;;;;;;;5.98;69.28;97568.47;1816757;79;20960;-39
2022/02/17 08:38:51;;;;;;;54.65;35.90;;;;;;;6.00;69.03;97568.28;1816871;79;21129;-40
2022/02/17 08:41:18;;;;;;;56.40;36.83;;;;;;;5.99;68.66;97568.10;1816627;79;20999;-39
2022/02/17 08:43:46;;;;;;;55.65;36.00;;;;;;;5.97;68.83;97562.31;1816748;79;20913;-39
2022/02/17 08:46:14;;;;;;;47.10;32.63;;;;;;;5.95;68.63;97558.47;1816908;79;20995;-39
2022/02/17 08:48:40;;;;;;;47.33;31.73;;;;;;;5.94;68.58;97541.55;1816775;79;21044;-39
2022/02/17 08:51:07;;;;;;;47.88;34.00;;;;;;;6.01;68.48;97541.59;1816984;79;21562;-39
2022/02/17 08:53:33;;;;;;;46.20;33.60;;;;;;;6.02;68.12;97532.37;1816670;79;20909;-39
2022/02/17 08:56:00;;;;;;;45.55;33.10;;;;;;;6.04;68.12;97525.29;1816924;79;20996;-39
2022/02/17 08:58:27;;;;;;;55.78;34.18;;;;;;;6.03;68.24;97519.13;1816523;79;21001;-39
2022/02/17 09:00:55;;;;;;;52.85;34.55;;;;;;;6.04;68.25;97511.84;1816955;79;21017;-39
2022/02/17 09:03:22;;;;;;;50.78;33.45;;;;;;;6.06;68.33;97509.53;1817034;79;21523;-39
2022/02/17 09:05:49;;;;;;;45.52;32.38;;;;;;;6.13;67.98;97500.75;1817101;79;21349;-39
2022/02/17 09:08:17;;;;;;;44.00;31.42;;;;;;;6.19;67.74;97490.61;1817342;79;21486;-39
2022/02/17 09:10:45;;;;;;;46.30;32.60;;;;;;;6.18;67.69;97485.03;1817197;79;21590;-39
2022/02/17 09:13:12;;;;;;;47.10;31.00;;;;;;;6.16;67.52;97478.46;1817331;79;21021;-39
2022/02/17 09:15:39;;;;;;;49.65;31.35;;;;;;;6.15;67.42;97473.65;1817380;79;21173;-39
2022/02/17 09:18:06;;;;;;;43.25;29.82;;;;;;;6.16;67.12;97468.47;1817220;79;21652;-39
2022/02/17 09:20:35;;;;;;;46.13;30.55;;;;;;;6.18;66.91;97459.47;1817060;79;21076;-39
2022/02/17 09:23:03;;;;;;;42.17;27.50;;;;;;;6.18;66.77;97458.13;1817506;79;21012;-39
2022/02/17 09:25:31;;;;;;;38.53;26.35;;;;;;;6.24;66.48;97449.13;1817153;79;21546;-39
2022/02/17 09:28:00;;;;;;;38.55;27.77;;;;;;;6.27;66.14;97453.73;1817142;79;22298;-39
2022/02/17 09:30:27;;;;;;;41.70;28.38;;;;;;;6.27;66.07;97442.98;1817019;79;21005;-39
2022/02/17 09:32:53;;;;;;;40.63;27.32;;;;;;;6.23;65.98;97430.08;1817177;79;20941;-39
2022/02/17 09:35:20;;;;;;;40.03;28.35;;;;;;;6.24;66.04;97432.41;1817013;79;20972;-39
2022/02/17 09:37:48;;;;;;;38.30;27.65;;;;;;;6.22;65.94;97419.12;1817024;79;21672;-39
2022/02/17 09:40:20;;;;;;;40.60;26.02;;;;;;;6.21;66.02;97406.23;1817123;79;21146;-39
2022/02/17 09:42:43;;;;;;;34.78;25.20;;;;;;;6.25;65.47;97407.59;1816306;78;21019;-39
2022/02/17 09:45:10;;;;;;;39.53;24.65;;;;;;;6.33;65.18;97409.18;1766063;79;21079;-39
2022/02/17 09:47:42;;;;;;;37.98;25.37;;;;;;;6.34;64.95;97396.67;1816971;79;20960;-39
2022/02/17 09:50:12;;;;;;;33.98;24.20;;;;;;;6.36;64.92;97393.04;1816997;79;20976;-39
2022/02/17 09:52:42;;;;;;;33.75;23.92;;;;;;;6.36;64.77;97403.80;1817142;79;21827;-39
2022/02/17 09:55:13;;;;;;;33.85;24.10;;;;;;;6.36;64.84;97390.34;1817047;79;21021;-39
2022/02/17 09:57:42;;;;;;;34.35;22.30;;;;;;;6.39;64.68;97394.96;1817110;79;21015;-39
2022/02/17 10:00:11;;;;;;;33.58;22.70;;;;;;;6.41;64.51;97399.41;1816986;79;21534;-39
2022/02/17 10:02:42;;;;;;;34.48;22.80;;;;;;;6.49;64.42;97386.73;1816807;79;21056;-39
2022/02/17 10:05:11;;;;;;;31.42;21.35;;;;;;;6.55;64.29;97391.95;1816698;79;21057;-39
2022/02/17 10:07:40;;;;;;;28.90;20.27;;;;;;;6.57;63.97;97376.77;1816792;79;20960;-39
2022/02/17 10:10:18;;;;;;;31.60;21.50;;;;;;;6.59;63.95;97377.14;1816857;79;20968;-39
2022/02/17 10:12:53;;;;;;;28.15;20.55;;;;;;;6.56;63.72;97371.95;1816589;79;21573;-39
2022/02/17 10:15:32;;;;;;;29.10;20.12;;;;;;;6.52;63.87;97357.15;1816987;79;20981;-40
2022/02/17 10:18:12;;;;;;;27.48;18.30;;;;;;;6.49;64.67;97347.13;1816068;79;21133;-39
2022/02/17 10:21:06;;;;;;;29.75;18.52;;;;;;;6.47;64.32;97341.37;1816924;79;21000;-39
2022/02/17 10:23:49;;;;;;;26.50;17.77;;;;;;;6.55;64.22;97325.41;1810597;79;21486;-39
2022/02/17 10:26:22;;;;;;;27.42;19.37;;;;;;;6.50;64.28;97327.14;1816932;79;21068;-39
2022/02/17 10:28:59;;;;;;;27.87;18.55;;;;;;;6.48;64.27;97311.19;1817028;79;21570;-39
2022/02/17 10:31:37;;;;;;;27.77;19.30;;;;;;;6.48;64.33;97317.34;1816915;79;21147;-39
2022/02/17 10:34:04;;;;;;;25.72;18.37;;;;;;;6.45;64.38;97305.20;1816842;79;21023;-39
2022/02/17 10:36:34;;;;;;;30.92;19.07;;;;;;;6.44;64.70;97297.70;1816954;79;21000;-39
2022/02/17 10:39:26;;;;;;;;;;;;;;;6.47;64.94;97313.11;1819738;79;21618;-39
2022/02/17 10:41:57;;;;;;;26.82;17.15;;;;;;;6.51;64.49;97296.38;1817270;78;20201;-39
2022/02/17 10:44:32;;;;;;;28.62;19.02;;;;;;;6.36;65.24;97289.43;1817381;79;21906;-39
2022/02/17 10:47:19;;;;;;;26.33;17.95;;;;;;;6.36;65.57;97296.16;1817048;79;20945;-39
2022/02/17 10:49:52;;;;;;;28.20;18.60;;;;;;;6.31;65.78;97297.88;1817298;79;20968;-39
2022/02/17 10:52:36;;;;;;;22.65;16.20;;;;;;;6.24;66.61;97273.66;1817000;79;21016;-39
2022/02/17 10:55:20;;;;;;;23.42;17.37;;;;;;;6.21;67.28;97267.67;1817407;79;21001;-40
2022/02/17 10:57:48;;;;;;;29.18;17.05;;;;;;;6.21;67.49;97277.09;1817032;79;21125;-39
2022/02/17 11:00:19;;;;;;;26.48;17.60;;;;;;;6.15;68.25;97264.41;1817274;79;21071;-40
2022/02/17 11:02:47;;;;;;;29.00;18.73;;;;;;;6.05;68.89;97247.09;1817238;79;20956;-39
2022/02/17 11:05:15;;;;;;;24.12;16.82;;;;;;;5.97;69.48;97242.25;1817492;79;21028;-39
2022/02/17 11:07:43;;;;;;;24.15;16.25;;;;;;;5.93;69.92;97238.02;1817200;79;21033;-40
2022/02/17 11:10:12;;;;;;;25.82;16.85;;;;;;;5.93;70.02;97227.26;1817388;79;21578;-40
2022/02/17 11:12:41;;;;;;;23.67;16.97;;;;;;;5.90;70.08;97215.92;1817033;79;21003;-40
2022/02/17 11:15:09;;;;;;;24.55;16.50;;;;;;;5.91;70.44;97191.90;1817442;79;20953;-40
2022/02/17 11:17:38;;;;;;;24.15;16.55;;;;;;;5.87;70.34;97186.52;1817017;79;21052;-40
2022/02/17 11:20:17;;;;;;;21.07;15.28;;;;;;;5.87;70.42;97189.20;1803986;79;21008;-40
2022/02/17 11:22:42;;;;;;;23.60;15.65;;;;;;;5.96;70.73;97172.70;1800195;79;21167;-40
2022/02/17 11:25:12;;;;;;;21.87;15.28;;;;;;;5.99;70.76;97178.68;1800385;79;21047;-39
2022/02/17 11:28:11;;;;;;;20.40;14.13;;;;;;;6.01;70.83;97177.70;1800333;79;21059;-40
2022/02/17 11:30:40;;;;;;;20.45;14.55;;;;;;;6.00;70.71;97174.23;1800194;79;21083;-39
2022/02/17 11:33:27;;;;;;;18.85;13.85;;;;;;;5.99;70.75;97162.54;1800458;79;21102;-40
2022/02/17 11:35:57;;;;;;;19.85;14.05;;;;;;;6.02;70.75;97161.77;1800773;79;20948;-39